createdAt,value
2023-02-15T00:01:55.972Z,88.08
2023-02-15T00:04:27.549Z,87.98
2023-02-15T00:06:54.336Z,87.83
2023-02-15T00:09:22.800Z,87.93
2023-02-15T00:11:50.843Z,87.94
2023-02-15T00:14:23.968Z,87.62
2023-02-15T00:16:52.837Z,88.05
2023-02-15T00:19:22.429Z,88.10
2023-02-15T00:21:50.104Z,88.67
2023-02-15T00:24:20.411Z,87.96
2023-02-15T00:26:51.226Z,87.99
2023-02-15T00:29:21.283Z,87.95
2023-02-15T00:31:48.525Z,88.19
2023-02-15T00:34:21.489Z,88.06
2023-02-15T00:36:48.350Z,88.22
2023-02-15T00:39:16.819Z,88.38
2023-02-15T00:41:44.400Z,88.53
2023-02-15T00:44:14.028Z,88.24
2023-02-15T00:46:42.867Z,88.32
2023-02-15T00:49:12.687Z,88.62
2023-02-15T00:51:40.251Z,88.28
2023-02-15T00:54:10.012Z,88.51
2023-02-15T00:56:37.046Z,88.30
2023-02-15T00:59:11.799Z,88.21
2023-02-15T01:01:38.720Z,87.99
2023-02-15T01:04:07.015Z,87.99
2023-02-15T01:06:34.137Z,88.46
2023-02-15T01:09:01.224Z,88.52
2023-02-15T01:11:28.079Z,88.31
2023-02-15T01:13:57.505Z,88.23
2023-02-15T01:16:25.829Z,88.23
2023-02-15T01:18:53.021Z,88.22
2023-02-15T01:21:24.053Z,88.53
2023-02-15T01:23:50.993Z,88.62
2023-02-15T01:26:19.582Z,88.08
2023-02-15T01:28:47.129Z,88.40
2023-02-15T01:31:16.188Z,88.62
2023-02-15T01:33:43.227Z,88.74
2023-02-15T01:36:10.328Z,88.40
2023-02-15T01:38:38.497Z,88.42
2023-02-15T01:41:05.287Z,88.13
2023-02-15T01:43:41.440Z,88.59
2023-02-15T01:46:10.054Z,88.71
2023-02-15T01:48:41.858Z,88.66
2023-02-15T01:51:10.116Z,88.86
2023-02-15T01:53:43.737Z,88.45
2023-02-15T01:56:14.617Z,88.61
2023-02-15T01:58:43.071Z,88.86
2023-02-15T02:01:10.103Z,88.87
2023-02-15T02:03:44.243Z,89.07
2023-02-15T02:06:11.037Z,88.93
2023-02-15T02:08:39.239Z,88.98
2023-02-15T02:11:11.633Z,88.63
2023-02-15T02:13:39.048Z,89.17
2023-02-15T02:16:12.653Z,89.00
2023-02-15T02:18:53.836Z,89.12
2023-02-15T02:22:03.600Z,89.16
2023-02-15T02:24:57.477Z,89.38
2023-02-15T02:27:48.001Z,89.73
2023-02-15T02:30:56.273Z,89.78
2023-02-15T02:33:52.478Z,89.49
2023-02-15T02:36:26.569Z,89.26
2023-02-15T02:39:07.414Z,90.07
2023-02-15T02:41:46.808Z,89.82
2023-02-15T02:44:24.464Z,89.90
2023-02-15T02:46:55.693Z,89.61
2023-02-15T02:49:39.908Z,90.24
2023-02-15T02:52:08.497Z,89.94
2023-02-15T02:54:39.679Z,90.06
2023-02-15T02:57:08.815Z,90.64
2023-02-15T02:59:42.899Z,90.46
2023-02-15T03:02:14.714Z,90.02
2023-02-15T03:04:48.814Z,90.12
2023-02-15T03:07:22.168Z,89.96
2023-02-15T03:09:53.249Z,90.29
2023-02-15T03:12:28.187Z,89.65
2023-02-15T03:15:01.597Z,90.48
2023-02-15T03:17:32.634Z,89.91
2023-02-15T03:20:13.473Z,91.14
2023-02-15T03:22:46.488Z,90.58
2023-02-15T03:25:19.476Z,90.32
2023-02-15T03:27:50.172Z,90.41
2023-02-15T03:30:22.312Z,90.30
2023-02-15T03:32:53.710Z,90.90
2023-02-15T03:35:27.627Z,90.41
2023-02-15T03:38:00.280Z,90.41
2023-02-15T03:40:32.610Z,90.51
2023-02-15T03:43:04.427Z,90.70
2023-02-15T03:45:34.553Z,90.74
2023-02-15T03:48:02.905Z,90.22
2023-02-15T03:50:34.588Z,90.58
2023-02-15T03:53:04.929Z,90.25
2023-02-15T03:55:34.184Z,90.20
2023-02-15T03:58:01.350Z,90.56
2023-02-15T04:00:28.775Z,90.17
2023-02-15T04:03:24.410Z,90.07
2023-02-15T04:05:53.214Z,90.26
2023-02-15T04:08:20.253Z,90.26
2023-02-15T04:10:46.949Z,90.30
2023-02-15T04:13:13.803Z,90.65
2023-02-15T04:15:44.038Z,90.68
2023-02-15T04:18:12.049Z,90.64
2023-02-15T04:20:39.377Z,90.56
2023-02-15T04:23:12.127Z,90.27
2023-02-15T04:25:40.006Z,90.91
2023-02-15T04:28:07.342Z,90.65
2023-02-15T04:30:40.465Z,91.07
2023-02-15T04:33:12.929Z,90.81
2023-02-15T04:35:40.111Z,91.00
2023-02-15T04:38:08.682Z,90.97
2023-02-15T04:40:36.004Z,91.35
2023-02-15T04:43:04.969Z,91.10
2023-02-15T04:45:31.762Z,91.18
2023-02-15T04:48:01.084Z,91.40
2023-02-15T04:50:27.783Z,91.25
2023-02-15T04:52:55.015Z,91.07
2023-02-15T04:55:23.183Z,91.19
2023-02-15T04:57:53.037Z,90.84
2023-02-15T05:00:20.509Z,91.21
2023-02-15T05:02:47.259Z,91.25
2023-02-15T05:05:14.293Z,91.14
2023-02-15T05:07:41.702Z,91.65
2023-02-15T05:10:10.748Z,91.27
2023-02-15T05:12:39.389Z,90.98
2023-02-15T05:15:07.020Z,91.25
2023-02-15T05:17:33.794Z,91.16
2023-02-15T05:20:01.354Z,91.39
2023-02-15T05:22:31.400Z,91.10
2023-02-15T05:24:59.337Z,91.32
2023-02-15T05:27:28.575Z,91.46
2023-02-15T05:29:57.519Z,91.77
2023-02-15T05:32:24.848Z,91.33
2023-02-15T05:34:52.271Z,91.66
2023-02-15T05:37:22.483Z,91.15
2023-02-15T05:39:49.558Z,91.53
2023-02-15T05:42:53.595Z,91.21
2023-02-15T05:45:29.504Z,91.19
2023-02-15T05:47:56.286Z,91.72
2023-02-15T05:50:23.021Z,91.17
2023-02-15T05:52:52.311Z,91.92
2023-02-15T05:55:19.996Z,91.49
2023-02-15T05:57:49.953Z,91.54
2023-02-15T06:00:18.944Z,91.46
2023-02-15T06:02:48.516Z,91.53
2023-02-15T06:05:15.440Z,91.58
2023-02-15T06:07:46.831Z,91.52
2023-02-15T06:10:14.566Z,91.89
2023-02-15T06:12:41.239Z,91.84
2023-02-15T06:15:11.346Z,91.79
2023-02-15T06:17:38.302Z,91.59
2023-02-15T06:20:08.643Z,91.82
2023-02-15T06:22:36.144Z,91.93
2023-02-15T06:25:03.244Z,92.10
2023-02-15T06:27:30.896Z,92.22
2023-02-15T06:29:57.998Z,92.47
2023-02-15T06:32:24.990Z,92.51
2023-02-15T06:34:53.250Z,92.43
2023-02-15T06:37:25.678Z,92.51
2023-02-15T06:39:52.439Z,92.51
2023-02-15T06:42:19.717Z,92.48
2023-02-15T06:44:46.725Z,92.95
2023-02-15T06:47:13.715Z,92.82
2023-02-15T06:49:40.592Z,92.72
2023-02-15T06:52:07.570Z,92.91
2023-02-15T06:54:35.986Z,92.66
2023-02-15T06:57:03.045Z,93.12
2023-02-15T06:59:32.042Z,93.33
2023-02-15T07:01:59.222Z,93.09
2023-02-15T07:04:29.476Z,93.62
2023-02-15T07:06:57.199Z,93.32
2023-02-15T07:09:26.396Z,93.56
2023-02-15T07:11:54.708Z,93.42
2023-02-15T07:14:21.576Z,93.71
2023-02-15T07:16:48.322Z,93.30
2023-02-15T07:19:15.345Z,93.55
2023-02-15T07:21:42.175Z,93.91
2023-02-15T07:24:08.941Z,93.95
2023-02-15T07:26:36.692Z,93.84
2023-02-15T07:29:08.272Z,94.59
2023-02-15T07:31:35.436Z,94.52
2023-02-15T07:34:02.477Z,94.39
2023-02-15T07:36:29.830Z,94.56
2023-02-15T07:38:56.874Z,94.40
2023-02-15T07:41:24.078Z,94.50
2023-02-15T07:43:50.965Z,95.00
2023-02-15T07:46:19.739Z,94.62
2023-02-15T07:48:48.634Z,94.75
2023-02-15T07:51:18.632Z,94.69
2023-02-15T07:53:47.715Z,94.90
2023-02-15T07:56:16.664Z,95.17
2023-02-15T07:58:44.552Z,95.20
2023-02-15T08:01:11.449Z,95.36
2023-02-15T08:03:40.289Z,95.03
2023-02-15T08:06:07.803Z,95.98
2023-02-15T08:08:35.753Z,95.59
2023-02-15T08:11:04.575Z,95.76
2023-02-15T08:13:31.348Z,95.66
2023-02-15T08:15:58.166Z,95.77
2023-02-15T08:18:25.167Z,95.93
2023-02-15T08:20:53.358Z,96.45
2023-02-15T08:23:20.538Z,96.56
2023-02-15T08:25:47.804Z,96.14
2023-02-15T08:28:15.080Z,96.74
2023-02-15T08:30:41.938Z,96.84
2023-02-15T08:33:08.733Z,96.53
2023-02-15T08:35:35.667Z,97.34
2023-02-15T08:38:03.951Z,97.65
2023-02-15T08:40:30.722Z,97.58
2023-02-15T08:42:57.709Z,97.74
2023-02-15T08:45:24.642Z,98.44
2023-02-15T08:47:51.688Z,97.92
2023-02-15T08:50:18.986Z,98.48
2023-02-15T08:52:45.975Z,98.37
2023-02-15T08:55:14.835Z,98.21
2023-02-15T08:57:48.424Z,98.54
2023-02-15T09:00:20.221Z,98.39
2023-02-15T09:02:47.019Z,98.43
2023-02-15T09:05:17.799Z,99.20
2023-02-15T09:07:47.891Z,99.14
2023-02-15T09:10:20.277Z,99.62
2023-02-15T09:12:47.625Z,99.32
2023-02-15T09:15:15.067Z,100.00
2023-02-15T09:17:47.271Z,99.79
2023-02-15T09:20:20.789Z,100.00
2023-02-15T09:22:55.053Z,100.00
2023-02-15T09:25:35.143Z,100.00
2023-02-15T09:28:02.264Z,100.00
2023-02-15T09:30:29.400Z,100.00
2023-02-15T09:32:56.646Z,100.00
2023-02-15T09:35:23.493Z,100.00
2023-02-15T09:37:51.218Z,100.00
2023-02-15T09:40:19.175Z,100.00
2023-02-15T09:43:08.396Z,100.00
2023-02-15T09:45:52.450Z,100.00
2023-02-15T09:48:40.967Z,100.00
2023-02-15T09:51:37.525Z,100.00
2023-02-15T09:54:16.559Z,100.00
2023-02-15T09:56:51.135Z,100.00
2023-02-15T09:59:30.816Z,100.00
2023-02-15T10:02:12.205Z,100.00
2023-02-15T10:04:51.169Z,100.00
2023-02-15T10:07:33.142Z,100.00
2023-02-15T10:10:13.475Z,100.00
2023-02-15T10:13:23.204Z,100.00
2023-02-15T10:16:17.790Z,100.00
2023-02-15T10:18:56.885Z,100.00
2023-02-15T10:21:35.630Z,100.00
2023-02-15T10:24:48.736Z,100.00
2023-02-15T10:27:21.082Z,100.00
2023-02-15T10:29:59.963Z,100.00
2023-02-15T10:40:11.739Z,100.00
2023-02-15T10:43:32.512Z,100.00
2023-02-15T10:50:02.661Z,100.00
2023-02-15T10:56:29.450Z,99.71
2023-02-15T11:12:45.790Z,98.76
2023-02-15T11:24:54.907Z,96.22
2023-02-15T11:27:25.395Z,95.55
2023-02-15T11:33:29.576Z,94.47
2023-02-15T11:36:02.130Z,93.34
2023-02-15T11:38:38.919Z,92.97
2023-02-15T11:41:14.766Z,93.22
2023-02-15T11:43:47.400Z,93.03
2023-02-15T11:46:17.084Z,92.52
2023-02-15T11:49:01.694Z,91.46
2023-02-15T11:51:28.827Z,91.27
2023-02-15T11:53:57.639Z,90.63
2023-02-15T11:56:25.915Z,90.51
2023-02-15T11:59:01.301Z,89.83
2023-02-15T12:01:32.835Z,90.35
2023-02-15T12:04:04.184Z,89.46
2023-02-15T12:06:49.047Z,83.44
2023-02-15T12:09:31.327Z,86.88
2023-02-15T12:12:22.430Z,84.08
2023-02-15T12:14:53.322Z,86.41
2023-02-15T12:17:25.998Z,85.92
2023-02-15T12:19:56.165Z,84.31
2023-02-15T12:22:28.676Z,83.72
2023-02-15T12:25:00.627Z,82.43
2023-02-15T12:27:30.271Z,82.34
2023-02-15T12:30:03.896Z,81.44
2023-02-15T12:32:37.316Z,80.36
2023-02-15T12:35:23.091Z,73.64
2023-02-15T12:38:32.581Z,77.28
2023-02-15T12:41:04.139Z,77.48
2023-02-15T12:43:46.614Z,76.08
2023-02-15T12:46:25.132Z,72.38
2023-02-15T12:49:10.824Z,71.57
2023-02-15T12:51:46.064Z,74.40
2023-02-15T12:54:38.985Z,73.03
2023-02-15T12:57:32.868Z,70.74
2023-02-15T13:00:04.605Z,73.08
2023-02-15T13:02:47.166Z,72.45
2023-02-15T13:05:24.050Z,69.64
2023-02-15T13:07:54.427Z,71.36
2023-02-15T13:10:27.933Z,70.75
2023-02-15T13:12:57.731Z,72.08
2023-02-15T13:15:37.925Z,71.79
2023-02-15T13:18:12.102Z,72.42
2023-02-15T13:20:45.666Z,72.14
2023-02-15T13:23:26.538Z,71.56
2023-02-15T13:25:59.070Z,71.87
2023-02-15T13:28:39.370Z,72.03
2023-02-15T13:31:16.109Z,71.86
2023-02-15T13:33:50.243Z,70.57
2023-02-15T13:36:24.920Z,71.48
2023-02-15T13:39:15.474Z,70.98
2023-02-15T13:41:55.444Z,71.96
2023-02-15T13:44:42.844Z,71.83
2023-02-15T13:47:42.805Z,70.59
2023-02-15T13:50:36.206Z,71.79
2023-02-15T13:53:25.957Z,70.58
2023-02-15T13:56:07.960Z,71.55
2023-02-15T13:59:04.949Z,71.95
2023-02-15T14:01:46.904Z,71.79
2023-02-15T14:04:41.956Z,71.01
2023-02-15T14:07:32.273Z,71.85
2023-02-15T14:10:11.780Z,71.40
2023-02-15T14:12:53.311Z,71.74
2023-02-15T14:15:27.363Z,70.15
2023-02-15T14:18:05.374Z,72.06
2023-02-15T14:20:46.110Z,70.95
2023-02-15T14:23:22.532Z,71.30
2023-02-15T14:25:56.034Z,71.52
2023-02-15T14:28:30.068Z,71.34
2023-02-15T14:30:57.785Z,71.64
2023-02-15T14:33:40.193Z,71.89
2023-02-15T14:36:17.471Z,71.65
2023-02-15T14:38:56.407Z,71.94
2023-02-15T14:41:33.211Z,72.30
2023-02-15T14:44:10.240Z,72.09
2023-02-15T14:46:49.303Z,72.08
2023-02-15T14:49:27.779Z,71.24
2023-02-15T14:51:59.804Z,71.14
2023-02-15T14:54:55.273Z,69.42
2023-02-15T14:57:25.128Z,70.08
2023-02-15T14:59:58.162Z,69.71
2023-02-15T15:02:29.183Z,69.22
2023-02-15T15:05:03.512Z,69.30
2023-02-15T15:07:38.663Z,69.28
2023-02-15T15:10:28.376Z,69.43
2023-02-15T15:12:57.994Z,70.13
2023-02-15T15:15:35.349Z,69.92
2023-02-15T15:18:05.215Z,70.75
2023-02-15T15:20:46.635Z,70.99
2023-02-15T15:23:44.750Z,71.00
2023-02-15T15:26:31.378Z,71.43
2023-02-15T15:29:02.858Z,72.21
2023-02-15T15:31:46.106Z,72.09
2023-02-15T15:34:44.793Z,72.37
2023-02-15T15:37:44.010Z,72.11
2023-02-15T15:40:49.566Z,72.08
2023-02-15T15:43:38.072Z,72.23
2023-02-15T15:46:24.739Z,72.64
2023-02-15T15:48:53.296Z,72.17
2023-02-15T15:51:24.410Z,72.45
2023-02-15T15:53:52.546Z,72.71
2023-02-15T15:56:25.526Z,72.23
2023-02-15T15:58:55.069Z,72.73
2023-02-15T16:01:27.806Z,72.80
2023-02-15T16:03:56.975Z,72.71
2023-02-15T16:06:35.665Z,73.25
2023-02-15T16:09:17.609Z,73.03
2023-02-15T16:16:14.068Z,73.17
2023-02-15T16:19:16.345Z,73.70
2023-02-15T16:21:49.589Z,73.82
2023-02-15T16:24:33.792Z,74.17
2023-02-15T16:27:23.948Z,74.34
2023-02-15T16:29:56.059Z,74.28
2023-02-15T16:32:26.564Z,74.68
2023-02-15T16:34:59.180Z,74.81
2023-02-15T16:37:32.536Z,75.21
2023-02-15T16:39:59.795Z,75.25
2023-02-15T16:42:27.154Z,75.65
2023-02-15T16:44:58.468Z,75.91
2023-02-15T16:47:38.349Z,76.76
2023-02-15T16:50:18.502Z,76.05
2023-02-15T16:52:46.873Z,76.50
2023-02-15T16:55:23.003Z,76.72
2023-02-15T16:57:50.620Z,76.83
2023-02-15T17:00:27.682Z,77.01
2023-02-15T17:03:27.784Z,77.10
2023-02-15T17:06:27.773Z,77.30
2023-02-15T17:09:04.491Z,77.92
2023-02-15T17:11:36.733Z,78.07
2023-02-15T17:14:20.467Z,78.27
2023-02-15T17:16:53.326Z,78.90
2023-02-15T17:19:25.496Z,78.69
2023-02-15T17:21:55.406Z,79.33
2023-02-15T17:24:38.554Z,79.57
2023-02-15T17:27:16.263Z,79.51
2023-02-15T17:30:01.084Z,79.60
2023-02-15T17:32:30.930Z,79.63
2023-02-15T17:35:21.878Z,80.07
2023-02-15T17:37:52.014Z,80.02
2023-02-15T17:40:25.588Z,80.26
2023-02-15T17:42:54.031Z,80.16
2023-02-15T17:45:28.163Z,80.26
2023-02-15T17:47:55.807Z,80.76
2023-02-15T17:50:26.675Z,80.88
2023-02-15T17:52:57.219Z,80.89
2023-02-15T17:55:25.025Z,80.65
2023-02-15T17:57:52.106Z,81.05
2023-02-15T18:00:19.360Z,81.13
2023-02-15T18:02:48.422Z,81.05
2023-02-15T18:05:16.681Z,81.53
2023-02-15T18:07:49.890Z,81.71
2023-02-15T18:10:18.863Z,81.41
2023-02-15T18:12:47.279Z,81.96
2023-02-15T18:15:14.836Z,81.92
2023-02-15T18:17:46.975Z,82.00
2023-02-15T18:20:19.604Z,82.27
2023-02-15T18:22:48.031Z,81.98
2023-02-15T18:25:17.626Z,82.16
2023-02-15T18:27:44.527Z,82.42
2023-02-15T18:30:15.741Z,82.88
2023-02-15T18:32:43.412Z,83.44
2023-02-15T18:35:15.048Z,83.18
2023-02-15T18:37:41.967Z,83.59
2023-02-15T18:40:15.443Z,84.15
2023-02-15T18:42:43.489Z,83.85
2023-02-15T18:45:15.848Z,84.66
2023-02-15T18:47:42.847Z,84.35
2023-02-15T18:50:09.854Z,84.60
2023-02-15T18:52:38.596Z,84.27
2023-02-15T18:55:18.048Z,84.76
2023-02-15T18:57:45.485Z,85.07
2023-02-15T19:00:16.119Z,84.99
2023-02-15T19:02:43.416Z,86.14
2023-02-15T19:05:10.580Z,86.16
2023-02-15T19:07:38.347Z,86.27
2023-02-15T19:10:08.463Z,86.39
2023-02-15T19:12:36.548Z,86.63
2023-02-15T19:15:03.489Z,86.86
2023-02-15T19:17:30.294Z,86.92
2023-02-15T19:19:57.359Z,87.12
2023-02-15T19:22:27.120Z,87.15
2023-02-15T19:24:56.000Z,86.58
2023-02-15T19:27:26.487Z,87.16
2023-02-15T19:29:57.266Z,87.36
2023-02-15T19:32:24.298Z,87.37
2023-02-15T19:34:51.730Z,87.30
2023-02-15T19:37:24.651Z,88.38
2023-02-15T19:39:52.182Z,87.59
2023-02-15T19:42:22.160Z,88.29
2023-02-15T19:44:48.991Z,88.14
2023-02-15T19:47:18.078Z,87.74
2023-02-15T19:49:46.200Z,88.17
2023-02-15T19:52:17.582Z,88.12
2023-02-15T19:54:46.198Z,89.51
2023-02-15T19:57:14.939Z,88.24
2023-02-15T19:59:42.221Z,88.58
2023-02-15T20:02:13.767Z,88.02
2023-02-15T20:04:42.421Z,88.18
2023-02-15T20:07:18.092Z,88.32
2023-02-15T20:09:46.227Z,88.17
2023-02-15T20:12:21.243Z,88.01
2023-02-15T20:14:48.305Z,88.45
2023-02-15T20:17:20.198Z,88.71
2023-02-15T20:19:48.917Z,88.65
2023-02-15T20:22:24.992Z,87.79
2023-02-15T20:24:53.417Z,88.32
2023-02-15T20:27:20.407Z,87.92
2023-02-15T20:29:49.176Z,87.94
2023-02-15T20:32:16.345Z,88.29
2023-02-15T20:34:43.241Z,88.20
2023-02-15T20:37:24.056Z,88.32
2023-02-15T20:39:52.351Z,88.41
2023-02-15T20:42:19.798Z,88.48
2023-02-15T20:44:46.739Z,88.09
2023-02-15T20:47:14.384Z,88.55
2023-02-15T20:49:41.318Z,88.00
2023-02-15T20:52:22.712Z,88.10
2023-02-15T20:54:52.528Z,89.61
2023-02-15T20:57:30.222Z,88.70
2023-02-15T20:59:57.175Z,88.58
2023-02-15T21:02:26.085Z,87.97
2023-02-15T21:05:19.872Z,88.60
2023-02-15T21:07:54.253Z,88.83
2023-02-15T21:11:03.691Z,88.58
2023-02-15T21:13:50.602Z,88.84
2023-02-15T21:16:24.344Z,88.81
2023-02-15T21:18:57.359Z,88.43
2023-02-15T21:21:53.921Z,88.54
2023-02-15T21:27:35.783Z,88.84
2023-02-15T21:30:07.137Z,88.43
2023-02-15T21:32:34.753Z,89.10
2023-02-15T21:35:03.274Z,88.60
2023-02-15T21:37:36.242Z,88.20
2023-02-15T21:40:16.788Z,88.90
2023-02-15T21:42:45.376Z,88.26
2023-02-15T21:45:17.417Z,88.66
2023-02-15T21:47:45.427Z,88.13
2023-02-15T21:50:15.393Z,88.63
2023-02-15T21:52:43.355Z,89.04
2023-02-15T21:55:14.535Z,89.23
2023-02-15T21:57:42.650Z,88.86
2023-02-15T22:00:14.772Z,88.80
2023-02-15T22:02:43.323Z,89.52
2023-02-15T22:05:13.945Z,89.46
2023-02-15T22:07:40.631Z,89.55
2023-02-15T22:10:07.940Z,89.21
2023-02-15T22:12:36.674Z,89.71
2023-02-15T22:15:04.732Z,89.08
2023-02-15T22:17:31.962Z,89.64
2023-02-15T22:19:58.808Z,89.49
2023-02-15T22:22:26.857Z,89.38
2023-02-15T22:24:53.625Z,89.78
2023-02-15T22:27:22.806Z,90.54
2023-02-15T22:29:54.730Z,89.77
2023-02-15T22:32:24.319Z,89.80
2023-02-15T22:34:52.522Z,90.11
2023-02-15T22:37:19.669Z,89.67
2023-02-15T22:39:46.828Z,89.64
2023-02-15T22:42:22.647Z,90.18
2023-02-15T22:44:49.366Z,90.13
2023-02-15T22:47:21.206Z,90.12
2023-02-15T22:49:48.016Z,90.06
2023-02-15T22:52:15.801Z,89.72
2023-02-15T22:54:43.908Z,90.00
2023-02-15T22:57:18.337Z,90.15
2023-02-15T22:59:48.322Z,89.57
2023-02-15T23:02:15.612Z,90.28
2023-02-15T23:04:43.834Z,90.15
2023-02-15T23:07:14.336Z,89.98
2023-02-15T23:09:41.354Z,89.97
2023-02-15T23:12:25.459Z,89.95
2023-02-15T23:14:54.435Z,90.04
2023-02-15T23:17:21.898Z,89.84
2023-02-15T23:19:50.496Z,89.95
2023-02-15T23:22:21.472Z,90.20
2023-02-15T23:24:52.634Z,89.99
2023-02-15T23:27:19.371Z,89.77
2023-02-15T23:29:46.295Z,89.68
2023-02-15T23:32:15.347Z,90.20
2023-02-15T23:34:43.101Z,90.32
2023-02-15T23:37:13.081Z,90.18
2023-02-15T23:39:40.176Z,90.22
2023-02-15T23:42:13.564Z,90.11
2023-02-15T23:44:42.179Z,90.27
2023-02-15T23:47:21.704Z,89.89
2023-02-15T23:49:48.767Z,90.04
2023-02-15T23:52:16.905Z,90.54
2023-02-15T23:54:43.657Z,90.16
2023-02-15T23:57:14.205Z,90.23
2023-02-15T23:59:43.717Z,89.94
